Aviation Digital Data Service (ADDS)

Output produced by METARs form (1728 UTC 16 June 2019)
found at http://www.aviationweather.gov/metar/data/
 
Forecast for: EDDP (LEIPZIG/SCHKEUDI, DE)
Text: TAF EDDP 161700Z 1618/1718 24003KT CAVOK
Forecast period: 1800 UTC 16 June 2019 to 0700 UTC 17 June 2019
Forecast type: FROM: standard forecast or significant change
Winds: from the WSW (240 degrees) at 3 MPH (3 knots; 1.5 m/s)
Visibility: 6 or more miles 10+ km)
Ceiling: unknown
Clouds: missing
Weather: NSW  (no significant weather)
Text: BECMG 1707/1710 10005KT
Forecast period: 0700 to 1800 UTC 17 June 2019
Forecast type: BECOMING: Conditions expected to become as follows by 1000 UTC 17 June 2019
Winds: from the E (100 degrees) at 6 MPH (5 knots; 2.6 m/s)
Visibility: 6 or more miles 10+ km)
Ceiling: unknown
Clouds: missing
Weather: NSW  (no significant weather)